Time;durP1;ratioP1;P1;durP2;ratioP2;P2;SDS_P1;SDS_P2;PMS_P1;PMS_P2;Temp;Humidity;BMP_temperature;BMP_pressure;BME280_temperature;BME280_humidity;BME280_pressure;Samples;Min_cycle;Max_cycle;Signal;HPM_P1;HPM_P2
2023/05/31 00:01:20;;;;;;;7.80;2.47;;;;;;;19.45;36.84;100352.03;4977508;28;20046;-89
2023/05/31 00:03:46;;;;;;;6.72;2.30;;;;;;;19.44;36.71;100353.88;4959870;28;20140;-88
2023/05/31 00:06:13;;;;;;;4.75;1.98;;;;;;;19.47;36.67;100350.81;4952475;28;20117;-87
2023/05/31 00:08:41;;;;;;;5.90;2.28;;;;;;;19.51;36.81;100356.66;4959402;28;20055;-87
2023/05/31 00:11:08;;;;;;;7.63;2.10;;;;;;;19.47;36.79;100352.69;4953647;28;20051;-87
2023/05/31 00:13:34;;;;;;;5.32;2.38;;;;;;;19.47;36.87;100358.06;4953113;28;20093;-86
2023/05/31 00:16:01;;;;;;;5.60;2.63;;;;;;;19.47;36.93;100352.69;4939346;28;20593;-87
2023/05/31 00:18:28;;;;;;;8.05;2.30;;;;;;;19.46;37.00;100348.28;4956299;28;20133;-89
2023/05/31 00:20:55;;;;;;;5.90;2.20;;;;;;;19.40;37.13;100344.47;4965758;28;20058;-88
2023/05/31 00:23:22;;;;;;;5.65;2.25;;;;;;;19.38;37.06;100349.19;4977108;28;20444;-88
2023/05/31 00:25:49;;;;;;;6.00;2.33;;;;;;;19.39;36.99;100355.44;4969152;28;20047;-87
2023/05/31 00:28:15;;;;;;;6.85;2.83;;;;;;;19.36;37.30;100351.25;4961460;28;20544;-88
2023/05/31 00:30:42;;;;;;;6.97;2.20;;;;;;;19.37;37.16;100352.09;4975528;28;20057;-87
2023/05/31 00:33:11;;;;;;;8.00;2.50;;;;;;;19.31;37.50;100353.66;4980068;28;20058;-86
2023/05/31 00:35:38;;;;;;;7.93;2.47;;;;;;;19.32;37.34;100349.09;4955512;28;20053;-89
2023/05/31 00:38:07;;;;;;;6.97;2.67;;;;;;;19.32;37.39;100344.53;4936722;28;20039;-88
2023/05/31 00:40:34;;;;;;;5.05;2.30;;;;;;;19.30;37.41;100347.41;4955174;28;20418;-87
2023/05/31 00:43:01;;;;;;;5.07;2.28;;;;;;;19.27;37.80;100339.69;4934818;28;20053;-90
2023/05/31 00:45:29;;;;;;;6.22;2.65;;;;;;;19.29;37.32;100337.66;4954723;28;20042;-87
2023/05/31 00:47:56;;;;;;;8.93;2.60;;;;;;;19.25;37.67;100341.72;4932919;28;20517;-86
2023/05/31 00:50:24;;;;;;;5.22;2.80;;;;;;;19.30;37.68;100341.19;4928320;28;20059;-87
2023/05/31 00:52:52;;;;;;;5.80;2.17;;;;;;;19.26;37.84;100339.91;4916533;28;20053;-88
2023/05/31 00:55:20;;;;;;;7.75;3.08;;;;;;;19.25;37.84;100330.97;4939815;28;20081;-87
2023/05/31 00:57:47;;;;;;;7.25;2.20;;;;;;;19.24;37.78;100340.06;4960967;28;20054;-87
2023/05/31 01:00:15;;;;;;;6.63;2.10;;;;;;;19.28;38.01;100338.69;4956492;28;20583;-88
2023/05/31 01:02:43;;;;;;;7.90;2.15;;;;;;;19.15;37.88;100340.28;4964231;28;20468;-87
2023/05/31 01:05:10;;;;;;;4.88;2.05;;;;;;;19.10;38.17;100340.81;4945473;28;20054;-88
2023/05/31 01:07:37;;;;;;;7.72;2.05;;;;;;;19.17;37.93;100339.09;4958915;28;20488;-87
2023/05/31 01:10:06;;;;;;;6.82;2.20;;;;;;;19.14;38.03;100342.16;4969291;28;20047;-88
2023/05/31 01:12:42;;;;;;;8.40;2.78;;;;;;;19.09;38.38;100334.63;4969734;28;20414;-88
2023/05/31 01:15:11;;;;;;;6.47;2.60;;;;;;;18.99;38.46;100344.78;4961328;28;20085;-87
2023/05/31 01:17:41;;;;;;;8.48;2.33;;;;;;;18.98;38.25;100328.78;4976906;28;20057;-87
2023/05/31 01:20:09;;;;;;;9.02;2.30;;;;;;;19.00;38.11;100346.44;4954429;28;20045;-88
2023/05/31 01:22:50;;;;;;;5.85;2.47;;;;;;;18.86;38.79;100341.84;4944146;28;20101;-88
2023/05/31 01:25:32;;;;;;;7.82;2.33;;;;;;;18.78;38.83;100341.88;4939267;28;20050;-87
2023/05/31 01:27:59;;;;;;;5.03;2.20;;;;;;;18.77;38.54;100335.66;4928150;28;20278;-87
2023/05/31 01:30:29;;;;;;;5.28;2.17;;;;;;;18.74;38.64;100340.53;4955995;28;20058;-89
2023/05/31 01:32:59;;;;;;;6.88;2.20;;;;;;;18.72;38.90;100339.84;4967694;28;20129;-87
2023/05/31 01:35:28;;;;;;;8.85;2.47;;;;;;;18.64;38.83;100348.81;4960811;28;20053;-87
2023/05/31 01:37:55;;;;;;;5.95;2.50;;;;;;;18.56;39.01;100347.00;4962776;28;20384;-87
2023/05/31 01:40:21;;;;;;;4.22;2.20;;;;;;;18.63;38.80;100339.91;4954968;28;20451;-87
2023/05/31 01:42:50;;;;;;;8.73;2.50;;;;;;;18.66;38.97;100339.53;4921293;28;20058;-87
2023/05/31 01:45:17;;;;;;;12.20;2.88;;;;;;;18.64;38.63;100341.56;4945502;28;20060;-87
2023/05/31 01:47:45;;;;;;;6.88;1.95;;;;;;;18.63;38.81;100339.06;4958120;28;20042;-87
2023/05/31 01:50:13;;;;;;;5.43;2.70;;;;;;;18.56;39.16;100343.47;4939848;28;20461;-87
2023/05/31 01:52:40;;;;;;;7.50;2.55;;;;;;;18.50;39.13;100338.81;4955676;28;20500;-88
2023/05/31 01:55:07;;;;;;;7.10;2.35;;;;;;;18.50;39.25;100341.50;4944403;28;20050;-88
2023/05/31 01:57:37;;;;;;;11.55;2.90;;;;;;;18.25;39.42;100341.59;4951499;28;20047;-89
2023/05/31 02:00:11;;;;;;;9.23;3.55;;;;;;;18.25;39.75;100340.75;4960305;28;20109;-88
2023/05/31 02:02:44;;;;;;;6.85;2.45;;;;;;;18.22;40.11;100345.44;4950874;28;20069;-88
2023/05/31 02:05:12;;;;;;;6.88;3.00;;;;;;;18.27;39.56;100344.06;4945467;28;20078;-86
2023/05/31 02:07:44;;;;;;;6.43;2.42;;;;;;;18.25;39.86;100341.59;4917694;28;20430;-88
2023/05/31 02:10:11;;;;;;;6.80;2.75;;;;;;;18.22;39.65;100345.44;4916025;28;20043;-88
2023/05/31 02:12:39;;;;;;;8.13;2.25;;;;;;;18.23;39.59;100339.06;4942176;28;20051;-87
2023/05/31 02:15:13;;;;;;;5.75;2.50;;;;;;;18.27;39.57;100344.06;4935660;28;20074;-88
2023/05/31 02:17:43;;;;;;;6.30;2.67;;;;;;;18.29;39.37;100342.88;4912469;28;20054;-87
2023/05/31 02:20:13;;;;;;;9.57;2.53;;;;;;;18.18;39.88;100344.09;4935152;28;20133;-87
2023/05/31 02:22:41;;;;;;;7.05;2.58;;;;;;;18.09;40.09;100333.56;4923351;28;20043;-86
2023/05/31 02:25:09;;;;;;;6.88;2.92;;;;;;;18.02;39.96;100343.34;4943088;28;20089;-87
2023/05/31 02:27:39;;;;;;;3.78;2.10;;;;;;;18.08;39.93;100340.78;4940799;28;20467;-88
2023/05/31 02:30:07;;;;;;;6.97;2.20;;;;;;;18.11;40.08;100347.66;4961473;28;20391;-87
2023/05/31 02:32:37;;;;;;;5.85;2.40;;;;;;;18.14;39.99;100345.47;4963341;28;20103;-87
2023/05/31 02:35:06;;;;;;;5.57;2.50;;;;;;;18.06;39.99;100341.97;4946696;28;20456;-87
2023/05/31 02:37:34;;;;;;;5.45;2.20;;;;;;;18.07;40.00;100352.56;4951506;28;20051;-88
2023/05/31 02:40:07;;;;;;;5.15;2.65;;;;;;;18.04;40.08;100341.28;4949603;28;20047;-87
2023/05/31 02:42:41;;;;;;;6.57;2.30;;;;;;;18.00;40.62;100338.94;4973221;28;20371;-86
2023/05/31 02:45:09;;;;;;;3.67;1.95;;;;;;;18.09;39.99;100345.16;4965575;28;20046;-87
2023/05/31 02:47:37;;;;;;;4.55;2.10;;;;;;;18.13;40.24;100340.28;4940645;28;20047;-87
2023/05/31 02:50:09;;;;;;;4.93;2.10;;;;;;;18.12;39.89;100339.44;4955980;28;20500;-88
2023/05/31 02:52:45;;;;;;;6.82;2.70;;;;;;;18.14;39.69;100340.09;4961273;28;20538;-88
2023/05/31 02:55:32;;;;;;;3.88;1.83;;;;;;;18.14;39.73;100348.16;4941926;28;20069;-87
2023/05/31 02:58:22;;;;;;;7.10;2.22;;;;;;;18.07;40.22;100343.66;4942964;28;20055;-87
2023/05/31 03:01:13;;;;;;;8.55;2.63;;;;;;;17.98;40.24;100340.97;4953909;28;20074;-89
2023/05/31 03:03:49;;;;;;;8.10;2.63;;;;;;;18.05;40.01;100342.97;4941408;28;20050;-89
2023/05/31 03:06:23;;;;;;;8.00;2.40;;;;;;;18.05;40.08;100337.59;4942110;28;20063;-89
2023/05/31 03:08:50;;;;;;;3.83;1.95;;;;;;;18.07;40.15;100335.59;4927915;28;20137;-87
2023/05/31 03:11:17;;;;;;;3.00;1.90;;;;;;;18.07;40.17;100339.13;4943585;28;20062;-87
2023/05/31 03:13:44;;;;;;;6.72;2.70;;;;;;;18.08;40.06;100335.41;4941348;28;20109;-87
2023/05/31 03:16:12;;;;;;;8.27;2.25;;;;;;;17.96;40.14;100351.06;4929540;28;20093;-89
2023/05/31 03:18:39;;;;;;;5.38;2.70;;;;;;;17.79;40.68;100339.50;4956561;28;20050;-88
2023/05/31 03:21:06;;;;;;;6.70;2.13;;;;;;;17.89;40.38;100349.25;4934140;28;20049;-87
2023/05/31 03:23:34;;;;;;;4.97;2.15;;;;;;;17.88;40.32;100347.53;4939157;28;20453;-88
2023/05/31 03:26:02;;;;;;;4.55;2.17;;;;;;;17.75;40.50;100348.88;4932180;28;20062;-88
2023/05/31 03:28:28;;;;;;;5.65;2.33;;;;;;;17.64;40.83;100346.53;4939101;28;20047;-86
2023/05/31 03:30:55;;;;;;;9.07;3.05;;;;;;;17.49;41.25;100341.00;4914687;28;20102;-86
2023/05/31 03:33:23;;;;;;;8.55;2.72;;;;;;;17.51;41.05;100348.91;4949559;28;20073;-87
2023/05/31 03:35:52;;;;;;;5.10;2.30;;;;;;;17.52;41.04;100345.19;4945985;28;20046;-87
2023/05/31 03:38:20;;;;;;;8.02;2.25;;;;;;;17.62;41.00;100345.03;4950089;28;21056;-88
2023/05/31 03:40:47;;;;;;;4.97;2.08;;;;;;;17.61;40.97;100352.25;4929719;28;20125;-88
2023/05/31 03:43:14;;;;;;;7.82;2.67;;;;;;;17.64;40.95;100346.53;4932088;28;20071;-85
2023/05/31 03:45:42;;;;;;;7.28;2.53;;;;;;;17.61;40.82;100352.25;4937047;28;20055;-87
2023/05/31 03:48:10;;;;;;;6.40;2.20;;;;;;;17.50;41.42;100349.91;4932399;28;20533;-88
2023/05/31 03:50:39;;;;;;;7.65;2.55;;;;;;;17.76;41.60;100352.41;4922479;28;20730;-87
2023/05/31 03:53:06;;;;;;;8.32;2.80;;;;;;;18.47;41.72;100336.44;4915958;28;20130;-87
2023/05/31 03:55:32;;;;;;;8.35;2.67;;;;;;;19.36;40.48;100347.72;4948165;28;20054;-86
2023/05/31 03:57:59;;;;;;;9.27;3.00;;;;;;;20.27;39.02;100348.53;4946470;28;20046;-88
2023/05/31 04:00:26;;;;;;;7.38;2.63;;;;;;;21.26;37.80;100348.91;4932594;28;20093;-89
2023/05/31 04:02:53;;;;;;;7.70;3.38;;;;;;;22.15;35.97;100351.09;4946311;28;20047;-87
2023/05/31 04:05:31;;;;;;;8.23;3.20;;;;;;;22.82;34.19;100352.31;4932187;28;20249;-88
2023/05/31 04:07:59;;;;;;;6.43;2.65;;;;;;;23.16;32.83;100351.38;4945077;28;20122;-89
2023/05/31 04:10:26;;;;;;;6.25;2.47;;;;;;;23.28;32.17;100354.31;4913835;28;20618;-87
2023/05/31 04:12:53;;;;;;;8.15;2.83;;;;;;;22.72;32.20;100354.56;4949919;28;20050;-88
2023/05/31 04:15:21;;;;;;;5.47;3.13;;;;;;;22.07;33.29;100362.09;4962557;28;20544;-88
2023/05/31 04:17:47;;;;;;;4.68;2.80;;;;;;;21.28;34.35;100362.25;4940453;28;20430;-88
2023/05/31 04:20:18;;;;;;;8.38;2.88;;;;;;;20.70;35.40;100367.63;4955934;28;20054;-88
2023/05/31 04:22:48;;;;;;;8.38;2.70;;;;;;;20.40;36.02;100375.69;4965666;28;20063;-88
2023/05/31 04:25:17;;;;;;;11.20;3.22;;;;;;;20.29;36.39;100374.31;4952970;28;20046;-88
2023/05/31 04:27:45;;;;;;;7.35;2.72;;;;;;;20.11;36.77;100377.38;4969833;28;20120;-88
2023/05/31 04:30:12;;;;;;;5.68;2.58;;;;;;;20.05;36.87;100372.72;4941543;28;20058;-87
2023/05/31 04:32:40;;;;;;;7.22;2.65;;;;;;;20.00;36.91;100376.97;4937003;28;20051;-87
2023/05/31 04:35:08;;;;;;;7.18;2.58;;;;;;;19.88;37.21;100366.66;4927249;28;20421;-88
2023/05/31 04:37:39;;;;;;;5.50;2.63;;;;;;;19.72;37.75;100381.13;4945462;28;20122;-87
2023/05/31 04:40:09;;;;;;;9.25;2.90;;;;;;;19.63;37.52;100367.88;4951442;28;20043;-87
2023/05/31 04:42:37;;;;;;;7.55;2.30;;;;;;;19.59;37.89;100380.00;4909595;28;20051;-87
2023/05/31 04:45:11;;;;;;;8.00;2.40;;;;;;;19.47;38.12;100366.16;4954957;28;20046;-88
2023/05/31 04:47:49;;;;;;;7.10;2.65;;;;;;;19.46;38.08;100368.00;4915902;28;20406;-87
2023/05/31 04:50:17;;;;;;;9.25;2.85;;;;;;;19.35;38.64;100368.41;4922724;28;20055;-87
2023/05/31 04:52:45;;;;;;;8.35;2.83;;;;;;;19.26;38.73;100367.66;4934922;28;20739;-89
2023/05/31 04:55:12;;;;;;;5.45;2.40;;;;;;;19.17;38.91;100373.28;4978215;28;20337;-87
2023/05/31 04:57:39;;;;;;;7.20;2.40;;;;;;;19.02;39.12;100368.63;4943329;28;20054;-87
2023/05/31 05:00:10;;;;;;;8.73;2.83;;;;;;;19.06;39.03;100363.75;4951502;28;20054;-87
2023/05/31 05:02:43;;;;;;;7.00;2.80;;;;;;;19.02;39.38;100374.03;4957886;28;20101;-87
2023/05/31 05:05:10;;;;;;;7.28;2.63;;;;;;;19.05;39.12;100376.34;4949389;28;20065;-87
2023/05/31 05:07:37;;;;;;;5.78;2.42;;;;;;;19.03;39.61;100374.84;4961115;28;20593;-87
2023/05/31 05:10:04;;;;;;;7.88;2.65;;;;;;;19.04;39.46;100380.06;4936526;28;20493;-85
2023/05/31 05:12:31;;;;;;;8.63;3.08;;;;;;;19.01;39.73;100379.59;4926106;28;20058;-87
2023/05/31 05:14:59;;;;;;;5.70;2.20;;;;;;;18.99;39.49;100382.47;4951829;28;20158;-87
2023/05/31 05:17:28;;;;;;;3.97;2.60;;;;;;;19.03;39.69;100386.47;4953899;28;20070;-88
2023/05/31 05:19:56;;;;;;;8.82;2.55;;;;;;;19.01;39.80;100393.06;4924145;28;20046;-89
2023/05/31 05:22:23;;;;;;;7.88;3.60;;;;;;;18.91;39.55;100390.56;4927745;28;20129;-88
2023/05/31 05:24:50;;;;;;;4.22;2.20;;;;;;;18.92;39.45;100386.03;4926899;28;20054;-87
2023/05/31 05:27:17;;;;;;;5.30;2.55;;;;;;;18.91;39.53;100384.38;4960482;28;20081;-87
2023/05/31 05:29:45;;;;;;;5.47;2.67;;;;;;;18.92;39.88;100394.09;4954118;28;20058;-88
2023/05/31 05:32:13;;;;;;;9.65;2.45;;;;;;;18.92;39.83;100388.72;4973249;28;20054;-87
2023/05/31 05:34:40;;;;;;;4.32;2.63;;;;;;;18.91;39.70;100385.19;4931130;28;20051;-87
2023/05/31 05:37:08;;;;;;;7.65;2.67;;;;;;;18.86;39.60;100403.72;4938082;28;20046;-88
2023/05/31 05:39:34;;;;;;;7.53;2.72;;;;;;;18.89;39.65;100389.06;4941937;28;20069;-88
2023/05/31 05:42:02;;;;;;;4.68;2.33;;;;;;;18.97;39.98;100389.03;4931188;28;20043;-87
2023/05/31 05:44:29;;;;;;;12.15;3.25;;;;;;;19.00;40.05;100391.38;4959703;28;20325;-88
2023/05/31 05:46:57;;;;;;;3.90;2.40;;;;;;;18.93;39.77;100393.94;4954529;28;20137;-88
2023/05/31 05:49:25;;;;;;;7.40;2.65;;;;;;;18.93;39.74;100393.06;4942324;28;20102;-87
2023/05/31 05:51:51;;;;;;;8.73;2.38;;;;;;;18.97;39.75;100383.66;4925109;28;20074;-87
2023/05/31 05:54:18;;;;;;;6.47;2.40;;;;;;;18.89;40.01;100386.38;4926916;28;20070;-87
2023/05/31 05:56:45;;;;;;;6.40;2.42;;;;;;;18.98;39.77;100386.16;4922280;28;20498;-86
2023/05/31 05:59:14;;;;;;;9.45;2.40;;;;;;;19.02;39.88;100390.16;4933528;28;20059;-86
2023/05/31 06:01:56;;;;;;;10.07;2.63;;;;;;;18.98;39.95;100390.69;4925779;28;20053;-89
2023/05/31 06:04:24;;;;;;;5.60;2.45;;;;;;;18.96;39.63;100382.81;4908802;28;20100;-88
2023/05/31 06:06:51;;;;;;;9.52;2.53;;;;;;;18.93;40.10;100388.56;4938775;28;20126;-88
2023/05/31 06:09:18;;;;;;;12.65;2.85;;;;;;;18.91;40.13;100389.75;4940067;28;20051;-88
2023/05/31 06:11:45;;;;;;;7.78;2.50;;;;;;;18.87;40.02;100391.94;4946742;28;20042;-87
2023/05/31 06:14:12;;;;;;;8.68;2.58;;;;;;;18.86;40.29;100404.56;4926506;28;20514;-87
2023/05/31 06:16:46;;;;;;;11.57;2.50;;;;;;;18.91;40.03;100392.44;4927101;28;20046;-89
2023/05/31 06:19:13;;;;;;;7.43;2.45;;;;;;;18.88;40.47;100407.09;4928638;28;20047;-88
2023/05/31 06:21:41;;;;;;;3.75;2.17;;;;;;;18.91;40.45;100398.66;4931444;28;20055;-89
2023/05/31 06:24:08;;;;;;;6.85;2.30;;;;;;;18.90;40.47;100388.88;4946388;28;20051;-87
2023/05/31 06:26:37;;;;;;;4.60;2.15;;;;;;;18.95;40.16;100394.56;4933106;28;20055;-87
2023/05/31 06:29:04;;;;;;;4.78;2.20;;;;;;;18.90;40.53;100404.19;4930366;28;20047;-86
2023/05/31 06:32:02;;;;;;;6.25;2.40;;;;;;;18.95;40.39;100394.56;4952299;28;20051;-85
2023/05/31 06:34:34;;;;;;;7.63;2.38;;;;;;;18.89;40.22;100408.75;4947501;28;20078;-88
2023/05/31 06:37:01;;;;;;;8.38;2.80;;;;;;;18.92;40.39;100394.09;4963086;28;20745;-87
2023/05/31 06:39:29;;;;;;;9.45;3.85;;;;;;;18.99;40.62;100403.16;4948633;28;20042;-86
2023/05/31 06:41:56;;;;;;;6.75;2.30;;;;;;;18.99;40.22;100400.47;4965024;28;20094;-86
2023/05/31 06:44:34;;;;;;;7.13;2.72;;;;;;;19.02;40.22;100398.25;4978575;28;20161;-88
2023/05/31 06:47:40;;;;;;;4.53;2.13;;;;;;;19.06;40.17;100404.97;4957737;28;20517;-87
2023/05/31 06:50:13;;;;;;;3.90;2.22;;;;;;;19.12;39.84;100399.88;4971085;28;20145;-87
2023/05/31 06:52:45;;;;;;;;;;;;;;;18.89;40.48;100394.47;4978743;28;20456;-86
2023/05/31 06:55:36;;;;;;;4.63;2.13;;;;;;;19.09;40.10;100391.13;4972710;28;19926;-87
2023/05/31 06:58:07;;;;;;;4.43;1.75;;;;;;;19.23;40.48;100388.69;4963529;28;20054;-87
2023/05/31 07:00:35;;;;;;;8.93;2.90;;;;;;;19.25;40.15;100386.66;4948114;28;20047;-87
2023/05/31 07:03:02;;;;;;;6.90;2.53;;;;;;;19.38;39.41;100376.13;4929789;28;20050;-88
2023/05/31 07:05:30;;;;;;;7.00;2.30;;;;;;;19.34;40.07;100392.84;4931991;28;20062;-88
2023/05/31 07:07:57;;;;;;;4.90;2.42;;;;;;;19.24;39.95;100396.59;4955963;28;20085;-88
2023/05/31 07:10:24;;;;;;;8.32;2.72;;;;;;;19.35;39.97;100372.97;4913181;28;20047;-87
2023/05/31 07:12:51;;;;;;;4.85;2.40;;;;;;;19.44;40.47;100385.38;4929920;28;20070;-86
2023/05/31 07:15:18;;;;;;;5.50;2.60;;;;;;;19.49;40.38;100378.41;4957294;28;20063;-87
2023/05/31 07:17:45;;;;;;;4.15;2.17;;;;;;;19.58;40.66;100384.56;4934197;28;20286;-88
2023/05/31 07:20:14;;;;;;;4.35;2.10;;;;;;;19.64;40.07;100378.47;4945976;28;20506;-87
2023/05/31 07:22:41;;;;;;;4.03;2.08;;;;;;;19.68;40.30;100371.72;4963776;28;20043;-87
2023/05/31 07:25:08;;;;;;;5.97;2.45;;;;;;;19.77;39.47;100395.88;4933763;28;20491;-88
2023/05/31 07:27:35;;;;;;;5.90;1.92;;;;;;;19.70;39.00;100379.63;4946048;28;20059;-86
2023/05/31 07:30:02;;;;;;;7.10;2.40;;;;;;;19.72;38.61;100364.13;4948567;28;20110;-87
2023/05/31 07:32:29;;;;;;;7.10;2.50;;;;;;;19.76;38.87;100369.97;4934737;28;20525;-87
2023/05/31 07:34:56;;;;;;;5.80;2.72;;;;;;;19.81;38.75;100367.56;4928049;28;20061;-88
2023/05/31 07:37:30;;;;;;;4.10;2.35;;;;;;;19.85;38.41;100368.88;4940180;28;20058;-87
2023/05/31 07:39:58;;;;;;;8.85;2.63;;;;;;;19.82;38.81;100361.13;4959777;28;20106;-88
2023/05/31 07:42:25;;;;;;;3.45;2.00;;;;;;;19.87;39.08;100362.28;4942000;28;20050;-87
2023/05/31 07:44:53;;;;;;;3.17;2.00;;;;;;;19.93;38.87;100361.53;4924068;28;20062;-87
2023/05/31 07:47:20;;;;;;;9.13;2.53;;;;;;;20.00;38.97;100360.78;4928920;28;20054;-87
2023/05/31 07:49:47;;;;;;;7.00;2.28;;;;;;;20.03;38.75;100357.75;4946657;28;20051;-88
2023/05/31 07:52:21;;;;;;;4.88;2.10;;;;;;;20.07;38.37;100354.47;4940854;28;20050;-87
2023/05/31 07:54:51;;;;;;;5.88;2.50;;;;;;;20.14;38.77;100352.72;4958688;28;20052;-87
2023/05/31 07:57:18;;;;;;;6.32;2.70;;;;;;;20.20;38.76;100351.16;4973594;28;20057;-88
2023/05/31 07:59:46;;;;;;;6.60;2.55;;;;;;;20.25;38.71;100346.06;4946634;28;20518;-87
2023/05/31 08:02:13;;;;;;;4.13;2.28;;;;;;;20.27;38.16;100351.25;4956470;28;20506;-86
2023/05/31 08:04:40;;;;;;;5.63;2.70;;;;;;;20.32;38.55;100351.53;4947595;28;20108;-87
2023/05/31 08:07:07;;;;;;;3.97;2.42;;;;;;;20.32;38.72;100338.03;4970400;28;20042;-87
2023/05/31 08:09:33;;;;;;;5.30;2.03;;;;;;;20.32;38.75;100335.34;4961432;28;20576;-87
2023/05/31 08:12:02;;;;;;;5.70;2.15;;;;;;;20.32;37.63;100332.63;4974319;28;20058;-87
2023/05/31 08:14:29;;;;;;;5.25;2.50;;;;;;;20.27;37.62;100352.06;4989825;28;20046;-87
2023/05/31 08:16:56;;;;;;;7.03;2.53;;;;;;;20.23;37.71;100337.31;4950314;28;20486;-87
2023/05/31 08:19:23;;;;;;;4.43;2.50;;;;;;;20.22;37.69;100337.47;4969054;28;20058;-87
2023/05/31 08:21:51;;;;;;;5.55;2.75;;;;;;;20.23;38.11;100331.09;4965811;28;20055;-87
2023/05/31 08:24:18;;;;;;;4.88;2.28;;;;;;;20.22;37.85;100345.56;4969350;28;20046;-87
2023/05/31 08:26:45;;;;;;;5.85;2.50;;;;;;;20.24;37.59;100324.66;4966958;28;20046;-87
2023/05/31 08:29:12;;;;;;;4.88;2.30;;;;;;;20.29;38.12;100350.03;4972782;28;20461;-88
2023/05/31 08:31:39;;;;;;;5.63;2.58;;;;;;;20.22;37.42;100342.88;4954037;28;20145;-87
2023/05/31 08:34:06;;;;;;;7.95;2.53;;;;;;;20.27;37.87;100329.66;4932670;28;20418;-87
2023/05/31 08:36:34;;;;;;;5.63;2.08;;;;;;;20.34;37.82;100322.50;4903149;28;20125;-87
2023/05/31 08:39:03;;;;;;;2.85;2.03;;;;;;;20.39;38.21;100337.09;4956862;28;20062;-88
2023/05/31 08:41:31;;;;;;;5.15;2.40;;;;;;;20.33;37.20;100339.72;4938625;28;20047;-88
2023/05/31 08:43:58;;;;;;;6.00;2.42;;;;;;;20.40;37.48;100327.13;4928606;28;20469;-88
2023/05/31 08:46:27;;;;;;;3.55;2.00;;;;;;;20.44;38.04;100324.91;4930796;28;20047;-87
2023/05/31 08:48:57;;;;;;;3.97;1.90;;;;;;;20.44;38.14;100317.66;4954635;28;20058;-87
2023/05/31 08:51:25;;;;;;;5.32;2.30;;;;;;;20.55;38.48;100319.88;4952337;28;20054;-87
2023/05/31 08:53:55;;;;;;;5.13;2.30;;;;;;;20.57;38.54;100322.41;4940512;28;20609;-88
2023/05/31 08:56:48;;;;;;;5.28;2.70;;;;;;;20.58;37.52;100324.06;4939718;28;20053;-88
2023/05/31 08:59:18;;;;;;;6.38;2.50;;;;;;;20.62;37.91;100309.19;4919597;28;20047;-87
2023/05/31 09:01:46;;;;;;;4.82;2.35;;;;;;;20.63;38.02;100310.84;4951772;28;20438;-88
2023/05/31 09:04:16;;;;;;;7.18;2.47;;;;;;;20.66;37.66;100315.88;4952613;28;20061;-87
2023/05/31 09:06:43;;;;;;;5.70;2.72;;;;;;;20.68;37.93;100315.69;4941755;28;20059;-87
2023/05/31 09:09:10;;;;;;;5.32;2.55;;;;;;;20.72;38.18;100306.19;4935464;28;20083;-89
2023/05/31 09:11:39;;;;;;;5.15;2.67;;;;;;;20.77;37.58;100323.47;4940539;28;20051;-88
2023/05/31 09:14:08;;;;;;;4.95;3.00;;;;;;;20.80;37.44;100306.91;4935680;28;20053;-87
2023/05/31 09:16:35;;;;;;;5.85;2.30;;;;;;;20.83;37.30;100302.97;4918985;28;22655;-86
2023/05/31 09:19:04;;;;;;;4.43;1.88;;;;;;;20.86;37.28;100304.47;4934708;28;20374;-87
2023/05/31 09:21:42;;;;;;;6.15;2.60;;;;;;;20.85;36.88;100319.84;4943193;28;20051;-87
2023/05/31 09:24:10;;;;;;;9.82;3.00;;;;;;;20.84;37.22;100301.13;4949492;28;20138;-89
2023/05/31 09:26:47;;;;;;;7.80;2.60;;;;;;;20.84;37.30;100306.50;4968118;28;20063;-87
2023/05/31 09:29:16;;;;;;;5.97;2.55;;;;;;;20.94;37.11;100293.53;4956787;28;20129;-88
2023/05/31 09:31:44;;;;;;;5.32;2.40;;;;;;;20.96;37.08;100294.19;4954364;28;20055;-87
2023/05/31 09:34:26;;;;;;;3.97;2.03;;;;;;;20.93;36.27;100292.72;4924470;28;20057;-88
2023/05/31 09:36:58;;;;;;;6.90;2.30;;;;;;;20.97;36.35;100295.88;4938642;28;20106;-89
2023/05/31 09:39:25;;;;;;;5.13;2.20;;;;;;;21.03;36.74;100287.00;4943487;28;20070;-87
2023/05/31 09:41:52;;;;;;;3.67;2.67;;;;;;;21.02;36.74;100277.22;4953331;28;20098;-88
2023/05/31 09:44:19;;;;;;;3.35;1.92;;;;;;;21.08;36.86;100281.84;4945697;28;20121;-87
2023/05/31 09:46:48;;;;;;;7.03;2.53;;;;;;;21.19;37.64;100280.50;4910219;28;20106;-87
2023/05/31 09:49:15;;;;;;;5.93;3.35;;;;;;;21.17;37.29;100296.06;4936560;28;20506;-86
2023/05/31 09:51:49;;;;;;;7.25;3.08;;;;;;;21.12;37.29;100290.41;4956955;28;20122;-88
2023/05/31 09:54:17;;;;;;;6.82;2.85;;;;;;;21.18;36.75;100289.63;4988359;28;20099;-87
2023/05/31 09:56:44;;;;;;;5.78;2.90;;;;;;;21.21;37.34;100290.06;4963690;28;20058;-87
2023/05/31 09:59:12;;;;;;;6.78;2.75;;;;;;;21.19;37.33;100284.03;4960768;28;20046;-87
2023/05/31 10:01:39;;;;;;;5.18;2.20;;;;;;;21.16;37.50;100278.19;4926331;28;20050;-88
2023/05/31 10:04:06;;;;;;;6.50;2.55;;;;;;;21.20;37.46;100284.88;4924316;28;20102;-88
2023/05/31 10:06:37;;;;;;;7.28;2.90;;;;;;;21.19;37.52;100294.84;4943333;28;20043;-88
2023/05/31 10:09:05;;;;;;;8.35;2.85;;;;;;;21.24;37.37;100302.34;4932836;28;20078;-88
2023/05/31 10:11:34;;;;;;;5.32;2.55;;;;;;;21.20;37.03;100303.78;4951525;28;20545;-87
2023/05/31 10:14:07;;;;;;;11.93;2.90;;;;;;;21.11;36.79;100289.56;4955573;28;20046;-88
2023/05/31 10:16:50;;;;;;;7.68;2.67;;;;;;;21.13;36.74;100281.28;4931610;28;20047;-87
2023/05/31 10:19:27;;;;;;;5.88;2.50;;;;;;;21.14;36.98;100285.63;4932218;28;20141;-88
2023/05/31 10:21:56;;;;;;;6.25;3.33;;;;;;;21.20;36.28;100311.88;4943290;28;20426;-87
2023/05/31 10:24:31;;;;;;;9.75;2.80;;;;;;;21.13;35.91;100290.22;4913385;28;20074;-87
2023/05/31 10:27:10;;;;;;;4.60;2.35;;;;;;;21.21;37.36;100279.25;4952152;28;20141;-88
2023/05/31 10:29:43;;;;;;;6.63;2.30;;;;;;;21.27;37.16;100282.22;4956846;28;20050;-88
2023/05/31 10:32:12;;;;;;;;;;;;;;;21.19;35.63;100294.84;4924338;28;20054;-85
2023/05/31 10:34:39;;;;;;;4.00;2.63;;;;;;;21.22;36.04;100294.47;4946688;28;19933;-87
2023/05/31 10:37:06;;;;;;;4.30;2.88;;;;;;;21.31;35.99;100267.31;4923814;28;20043;-87
2023/05/31 10:39:42;;;;;;;7.68;2.15;;;;;;;21.33;35.31;100267.94;4951852;28;20066;-86
2023/05/31 10:42:09;;;;;;;7.03;2.38;;;;;;;21.33;36.04;100289.56;4959142;28;20787;-87
2023/05/31 10:44:48;;;;;;;4.82;2.63;;;;;;;21.32;35.06;100275.22;4945895;28;20051;-88
2023/05/31 10:47:15;;;;;;;5.53;2.50;;;;;;;21.39;35.78;100261.78;4938195;28;20058;-88
2023/05/31 10:49:44;;;;;;;7.10;2.47;;;;;;;21.45;35.25;100277.22;4946372;28;20042;-88
2023/05/31 10:52:14;;;;;;;5.53;2.45;;;;;;;21.44;35.60;100259.31;4951456;28;20102;-89
2023/05/31 10:54:41;;;;;;;3.22;2.22;;;;;;;21.50;36.11;100263.09;4926504;28;20049;-87
2023/05/31 10:57:10;;;;;;;5.40;2.72;;;;;;;21.58;36.10;100268.38;4943236;28;20478;-87
2023/05/31 10:59:44;;;;;;;7.35;2.90;;;;;;;21.58;36.37;100271.09;4951105;28;20442;-89
2023/05/31 11:02:11;;;;;;;7.93;2.40;;;;;;;21.61;35.55;100262.56;4952207;28;20054;-88
2023/05/31 11:04:38;;;;;;;8.13;2.42;;;;;;;21.59;34.77;100288.97;4939527;28;20071;-87
2023/05/31 11:07:22;;;;;;;7.22;2.67;;;;;;;21.57;33.82;100275.63;4947360;28;20099;-88
2023/05/31 11:09:56;;;;;;;3.72;2.25;;;;;;;21.58;33.70;100254.88;4939791;28;20108;-88
2023/05/31 11:12:33;;;;;;;5.38;2.35;;;;;;;21.64;33.92;100275.69;4936126;28;20167;-87
2023/05/31 11:15:04;;;;;;;7.88;2.60;;;;;;;21.61;33.96;100259.88;4930168;28;20406;-88
2023/05/31 11:17:54;;;;;;;4.88;2.30;;;;;;;21.56;33.19;100265.03;4954236;28;20223;-86
2023/05/31 11:20:22;;;;;;;4.07;2.35;;;;;;;21.75;33.59;100285.94;4943861;28;20054;-88
2023/05/31 11:23:25;;;;;;;6.72;2.28;;;;;;;21.57;32.86;100253.19;4934872;28;20098;-87
2023/05/31 11:26:11;;;;;;;6.13;2.33;;;;;;;21.66;33.37;100244.72;4955771;28;20046;-88
2023/05/31 11:29:00;;;;;;;6.85;2.20;;;;;;;21.72;34.82;100244.97;4961683;28;20458;-88
2023/05/31 11:31:49;;;;;;;7.43;2.75;;;;;;;21.74;33.80;100262.66;4936450;28;20059;-88
2023/05/31 11:34:33;;;;;;;10.50;2.30;;;;;;;21.81;33.73;100236.50;4954031;28;20069;-88
2023/05/31 11:37:05;;;;;;;3.58;2.30;;;;;;;21.84;33.68;100243.38;4936361;28;20047;-88